sensor_id;sensor_type;location;lat;lon;timestamp;P1;P2;P0
51320;PMS5003;38732;49.556;6.286;2023-04-03T00:01:18;7.00;5.25;4.00
51320;PMS5003;38732;49.556;6.286;2023-04-03T00:03:47;7.25;6.00;4.00
51320;PMS5003;38732;49.556;6.286;2023-04-03T00:06:15;8.25;5.75;2.00
51320;PMS5003;38732;49.556;6.286;2023-04-03T00:08:43;7.50;6.50;4.00
51320;PMS5003;38732;49.556;6.286;2023-04-03T00:11:12;5.75;5.00;4.00
51320;PMS5003;38732;49.556;6.286;2023-04-03T00:13:40;6.00;5.00;4.00
51320;PMS5003;38732;49.556;6.286;2023-04-03T00:16:09;7.75;7.50;4.00
51320;PMS5003;38732;49.556;6.286;2023-04-03T00:18:38;5.60;5.60;4.00
51320;PMS5003;38732;49.556;6.286;2023-04-03T00:21:07;7.20;6.00;3.20
51320;PMS5003;38732;49.556;6.286;2023-04-03T00:23:37;8.80;7.60;4.20
51320;PMS5003;38732;49.556;6.286;2023-04-03T00:26:05;5.00;5.00;2.50
51320;PMS5003;38732;49.556;6.286;2023-04-03T00:28:33;5.75;5.75;4.00
51320;PMS5003;38732;49.556;6.286;2023-04-03T00:31:02;5.75;5.75;3.50
51320;PMS5003;38732;49.556;6.286;2023-04-03T00:33:31;8.75;5.00;4.00
51320;PMS5003;38732;49.556;6.286;2023-04-03T00:35:59;7.50;7.50;5.00
51320;PMS5003;38732;49.556;6.286;2023-04-03T00:38:27;2.50;2.50;1.00
51320;PMS5003;38732;49.556;6.286;2023-04-03T00:40:55;5.75;5.75;4.00
51320;PMS5003;38732;49.556;6.286;2023-04-03T00:43:24;5.00;5.00;4.00
51320;PMS5003;38732;49.556;6.286;2023-04-03T00:45:54;8.00;8.00;4.00
51320;PMS5003;38732;49.556;6.286;2023-04-03T00:48:32;7.40;5.20;4.00
51320;PMS5003;38732;49.556;6.286;2023-04-03T00:51:06;8.20;8.20;5.80
51320;PMS5003;38732;49.556;6.286;2023-04-03T00:53:38;9.00;5.80;4.20
51320;PMS5003;38732;49.556;6.286;2023-04-03T00:56:10;8.40;8.40;4.80
51320;PMS5003;38732;49.556;6.286;2023-04-03T00:59:02;9.40;9.00;6.20
51320;PMS5003;38732;49.556;6.286;2023-04-03T01:01:36;8.00;8.00;5.40
51320;PMS5003;38732;49.556;6.286;2023-04-03T01:04:06;6.20;6.20;4.40
51320;PMS5003;38732;49.556;6.286;2023-04-03T01:06:55;10.40;10.20;6.80
51320;PMS5003;38732;49.556;6.286;2023-04-03T01:09:26;8.00;7.40;4.00
51320;PMS5003;38732;49.556;6.286;2023-04-03T01:11:54;13.00;8.25;4.50
51320;PMS5003;38732;49.556;6.286;2023-04-03T01:14:41;8.00;8.00;5.00
51320;PMS5003;38732;49.556;6.286;2023-04-03T01:25:52;9.60;6.80;5.00
51320;PMS5003;38732;49.556;6.286;2023-04-03T01:28:25;7.40;7.40;4.00
51320;PMS5003;38732;49.556;6.286;2023-04-03T01:31:01;8.40;7.60;6.60
51320;PMS5003;38732;49.556;6.286;2023-04-03T01:34:01;8.20;8.20;5.40
51320;PMS5003;38732;49.556;6.286;2023-04-03T01:36:30;7.60;7.60;5.00
51320;PMS5003;38732;49.556;6.286;2023-04-03T01:38:59;8.00;6.20;4.80
51320;PMS5003;38732;49.556;6.286;2023-04-03T01:41:28;8.50;8.50;5.00
51320;PMS5003;38732;49.556;6.286;2023-04-03T01:43:56;8.00;7.75;5.50
51320;PMS5003;38732;49.556;6.286;2023-04-03T01:46:25;10.25;8.25;7.00
51320;PMS5003;38732;49.556;6.286;2023-04-03T01:48:53;12.00;11.00;6.00
51320;PMS5003;38732;49.556;6.286;2023-04-03T01:51:21;8.75;7.50;5.00
51320;PMS5003;38732;49.556;6.286;2023-04-03T01:53:50;11.25;11.00;6.25
51320;PMS5003;38732;49.556;6.286;2023-04-03T01:56:18;13.00;11.75;6.00
51320;PMS5003;38732;49.556;6.286;2023-04-03T01:58:46;6.50;6.50;4.00
51320;PMS5003;38732;49.556;6.286;2023-04-03T02:01:14;8.75;8.75;5.00
51320;PMS5003;38732;49.556;6.286;2023-04-03T02:03:42;8.75;6.75;4.75
51320;PMS5003;38732;49.556;6.286;2023-04-03T02:06:11;15.75;13.25;9.00
51320;PMS5003;38732;49.556;6.286;2023-04-03T02:08:39;9.00;9.00;6.25
51320;PMS5003;38732;49.556;6.286;2023-04-03T02:11:07;12.00;10.00;6.25
51320;PMS5003;38732;49.556;6.286;2023-04-03T02:13:35;8.00;6.50;4.00
51320;PMS5003;38732;49.556;6.286;2023-04-03T02:16:10;9.00;8.25;5.00
51320;PMS5003;38732;49.556;6.286;2023-04-03T02:18:38;12.20;10.40;5.00
51320;PMS5003;38732;49.556;6.286;2023-04-03T02:21:07;7.40;7.40;2.40
51320;PMS5003;38732;49.556;6.286;2023-04-03T02:23:36;9.75;8.75;5.50
51320;PMS5003;38732;49.556;6.286;2023-04-03T02:26:08;9.00;5.50;4.75
51320;PMS5003;38732;49.556;6.286;2023-04-03T02:28:38;8.00;8.00;4.00
51320;PMS5003;38732;49.556;6.286;2023-04-03T02:31:08;7.60;7.60;5.00
51320;PMS5003;38732;49.556;6.286;2023-04-03T02:33:37;6.20;6.20;2.00
51320;PMS5003;38732;49.556;6.286;2023-04-03T02:36:06;11.00;11.00;7.00
51320;PMS5003;38732;49.556;6.286;2023-04-03T02:38:35;10.20;7.80;4.80
51320;PMS5003;38732;49.556;6.286;2023-04-03T02:41:05;8.80;8.80;5.40
51320;PMS5003;38732;49.556;6.286;2023-04-03T02:43:34;8.20;8.20;4.00
51320;PMS5003;38732;49.556;6.286;2023-04-03T02:46:03;8.00;8.00;5.50
51320;PMS5003;38732;49.556;6.286;2023-04-03T02:48:32;7.75;7.75;4.25
51320;PMS5003;38732;49.556;6.286;2023-04-03T02:51:00;13.00;13.00;7.50
51320;PMS5003;38732;49.556;6.286;2023-04-03T02:53:28;14.50;13.00;7.00
51320;PMS5003;38732;49.556;6.286;2023-04-03T02:55:56;3.25;3.25;1.00
51320;PMS5003;38732;49.556;6.286;2023-04-03T02:58:25;11.00;8.75;5.00
51320;PMS5003;38732;49.556;6.286;2023-04-03T03:00:53;12.00;8.00;7.00
51320;PMS5003;38732;49.556;6.286;2023-04-03T03:03:21;9.00;9.00;6.00
51320;PMS5003;38732;49.556;6.286;2023-04-03T03:05:49;7.50;7.50;6.00
51320;PMS5003;38732;49.556;6.286;2023-04-03T03:08:18;12.25;10.50;7.00
51320;PMS5003;38732;49.556;6.286;2023-04-03T03:10:46;9.50;9.50;7.00
51320;PMS5003;38732;49.556;6.286;2023-04-03T03:13:14;8.00;8.00;6.00
51320;PMS5003;38732;49.556;6.286;2023-04-03T03:15:42;6.50;6.50;5.50
51320;PMS5003;38732;49.556;6.286;2023-04-03T03:18:10;6.25;6.25;3.00
51320;PMS5003;38732;49.556;6.286;2023-04-03T03:20:39;6.50;6.50;4.00
51320;PMS5003;38732;49.556;6.286;2023-04-03T03:23:07;12.25;9.75;6.50
51320;PMS5003;38732;49.556;6.286;2023-04-03T03:25:38;5.50;4.50;1.00
51320;PMS5003;38732;49.556;6.286;2023-04-03T03:28:07;6.20;6.20;3.00
51320;PMS5003;38732;49.556;6.286;2023-04-03T03:30:36;10.00;7.50;5.00
51320;PMS5003;38732;49.556;6.286;2023-04-03T03:33:04;12.75;11.00;7.00
51320;PMS5003;38732;49.556;6.286;2023-04-03T03:35:32;8.00;8.00;5.50
51320;PMS5003;38732;49.556;6.286;2023-04-03T03:38:00;6.25;4.50;1.00
51320;PMS5003;38732;49.556;6.286;2023-04-03T03:40:28;7.50;7.50;5.00
51320;PMS5003;38732;49.556;6.286;2023-04-03T03:42:57;11.00;9.00;6.00
51320;PMS5003;38732;49.556;6.286;2023-04-03T03:45:25;6.75;6.75;4.00
51320;PMS5003;38732;49.556;6.286;2023-04-03T03:47:53;10.50;9.25;6.00
51320;PMS5003;38732;49.556;6.286;2023-04-03T03:50:21;0.00;0.00;0.00
51320;PMS5003;38732;49.556;6.286;2023-04-03T03:52:49;3.00;3.00;1.00
51320;PMS5003;38732;49.556;6.286;2023-04-03T03:55:18;3.75;3.75;1.00
51320;PMS5003;38732;49.556;6.286;2023-04-03T03:57:46;10.00;9.00;6.00
51320;PMS5003;38732;49.556;6.286;2023-04-03T04:00:14;4.50;4.50;3.00
51320;PMS5003;38732;49.556;6.286;2023-04-03T04:02:42;4.00;4.00;3.00
51320;PMS5003;38732;49.556;6.286;2023-04-03T04:05:11;6.75;5.50;3.00
51320;PMS5003;38732;49.556;6.286;2023-04-03T04:07:39;10.75;7.00;5.00
51320;PMS5003;38732;49.556;6.286;2023-04-03T04:10:08;5.50;5.50;4.00
51320;PMS5003;38732;49.556;6.286;2023-04-03T04:12:36;7.00;7.00;4.00
51320;PMS5003;38732;49.556;6.286;2023-04-03T04:15:05;6.75;3.50;1.00
51320;PMS5003;38732;49.556;6.286;2023-04-03T04:17:33;6.25;5.50;3.00
51320;PMS5003;38732;49.556;6.286;2023-04-03T04:20:02;9.00;9.00;6.00
51320;PMS5003;38732;49.556;6.286;2023-04-03T04:22:31;11.80;8.00;5.40
51320;PMS5003;38732;49.556;6.286;2023-04-03T04:24:59;7.00;7.00;5.00
51320;PMS5003;38732;49.556;6.286;2023-04-03T04:27:27;6.75;5.50;3.00
51320;PMS5003;38732;49.556;6.286;2023-04-03T04:29:55;6.50;6.50;4.00
51320;PMS5003;38732;49.556;6.286;2023-04-03T04:32:24;3.00;3.00;3.00
51320;PMS5003;38732;49.556;6.286;2023-04-03T04:34:52;10.00;5.75;4.00
51320;PMS5003;38732;49.556;6.286;2023-04-03T04:37:20;11.00;6.25;4.00
51320;PMS5003;38732;49.556;6.286;2023-04-03T04:39:48;4.00;4.00;2.00
51320;PMS5003;38732;49.556;6.286;2023-04-03T04:42:17;3.00;3.00;0.25
51320;PMS5003;38732;49.556;6.286;2023-04-03T04:44:45;6.00;6.00;4.00
51320;PMS5003;38732;49.556;6.286;2023-04-03T04:47:13;7.00;6.00;4.50
51320;PMS5003;38732;49.556;6.286;2023-04-03T04:49:41;5.25;3.00;1.00
51320;PMS5003;38732;49.556;6.286;2023-04-03T04:52:09;4.00;3.00;1.00
51320;PMS5003;38732;49.556;6.286;2023-04-03T04:54:38;3.00;3.00;1.00
51320;PMS5003;38732;49.556;6.286;2023-04-03T04:57:06;3.00;3.00;3.00
51320;PMS5003;38732;49.556;6.286;2023-04-03T04:59:34;3.50;3.00;1.00
51320;PMS5003;38732;49.556;6.286;2023-04-03T05:02:02;5.00;5.00;2.00
51320;PMS5003;38732;49.556;6.286;2023-04-03T05:04:31;2.50;2.50;1.00
51320;PMS5003;38732;49.556;6.286;2023-04-03T05:06:59;3.00;3.00;1.00
51320;PMS5003;38732;49.556;6.286;2023-04-03T05:09:27;5.50;3.00;1.00
51320;PMS5003;38732;49.556;6.286;2023-04-03T05:11:55;4.50;2.75;1.00
51320;PMS5003;38732;49.556;6.286;2023-04-03T05:14:23;3.00;3.00;1.00
51320;PMS5003;38732;49.556;6.286;2023-04-03T05:16:52;3.75;3.50;2.00
51320;PMS5003;38732;49.556;6.286;2023-04-03T05:19:20;4.00;3.75;2.50
51320;PMS5003;38732;49.556;6.286;2023-04-03T05:21:49;1.00;1.00;0.00
51320;PMS5003;38732;49.556;6.286;2023-04-03T05:24:17;4.50;4.50;1.00
51320;PMS5003;38732;49.556;6.286;2023-04-03T05:26:45;0.00;0.00;0.00
51320;PMS5003;38732;49.556;6.286;2023-04-03T05:29:13;5.00;5.00;3.00
51320;PMS5003;38732;49.556;6.286;2023-04-03T05:31:42;2.00;1.00;1.00
51320;PMS5003;38732;49.556;6.286;2023-04-03T05:34:10;1.00;1.00;1.00
51320;PMS5003;38732;49.556;6.286;2023-04-03T05:36:40;3.80;3.00;1.80
51320;PMS5003;38732;49.556;6.286;2023-04-03T05:39:08;5.00;1.50;1.00
51320;PMS5003;38732;49.556;6.286;2023-04-03T05:41:37;6.00;4.00;1.00
51320;PMS5003;38732;49.556;6.286;2023-04-03T05:44:05;0.75;0.75;0.75
51320;PMS5003;38732;49.556;6.286;2023-04-03T05:46:33;3.25;3.00;1.00
51320;PMS5003;38732;49.556;6.286;2023-04-03T05:49:01;5.50;3.50;1.00
51320;PMS5003;38732;49.556;6.286;2023-04-03T05:51:32;6.25;4.00;3.00
51320;PMS5003;38732;49.556;6.286;2023-04-03T05:54:06;3.00;3.00;1.00
51320;PMS5003;38732;49.556;6.286;2023-04-03T05:56:40;4.00;4.00;1.00
51320;PMS5003;38732;49.556;6.286;2023-04-03T05:59:08;4.25;4.25;2.00
51320;PMS5003;38732;49.556;6.286;2023-04-03T06:01:36;3.50;3.50;2.00
51320;PMS5003;38732;49.556;6.286;2023-04-03T06:04:05;2.50;0.75;0.25
51320;PMS5003;38732;49.556;6.286;2023-04-03T06:06:49;3.00;1.00;1.00
51320;PMS5003;38732;49.556;6.286;2023-04-03T06:09:19;3.80;3.00;1.00
51320;PMS5003;38732;49.556;6.286;2023-04-03T06:11:48;3.60;1.00;0.00
51320;PMS5003;38732;49.556;6.286;2023-04-03T06:14:17;9.00;4.00;3.00
51320;PMS5003;38732;49.556;6.286;2023-04-03T06:16:45;2.50;1.00;0.75
51320;PMS5003;38732;49.556;6.286;2023-04-03T06:19:13;7.00;4.00;1.00
51320;PMS5003;38732;49.556;6.286;2023-04-03T06:21:42;1.00;1.00;0.00
51320;PMS5003;38732;49.556;6.286;2023-04-03T06:24:11;4.50;4.50;3.00
51320;PMS5003;38732;49.556;6.286;2023-04-03T06:26:42;5.60;4.20;1.80
51320;PMS5003;38732;49.556;6.286;2023-04-03T06:29:11;2.00;2.00;1.00
51320;PMS5003;38732;49.556;6.286;2023-04-03T06:31:39;6.00;6.00;3.00
51320;PMS5003;38732;49.556;6.286;2023-04-03T06:34:07;6.00;4.00;3.00
51320;PMS5003;38732;49.556;6.286;2023-04-03T06:36:36;7.00;7.00;4.00
51320;PMS5003;38732;49.556;6.286;2023-04-03T06:39:04;9.00;6.50;3.75
51320;PMS5003;38732;49.556;6.286;2023-04-03T06:41:33;6.00;6.00;4.00
51320;PMS5003;38732;49.556;6.286;2023-04-03T06:44:01;5.00;5.00;3.50
51320;PMS5003;38732;49.556;6.286;2023-04-03T06:46:29;6.00;6.00;3.00
51320;PMS5003;38732;49.556;6.286;2023-04-03T06:48:57;6.00;6.00;3.00
51320;PMS5003;38732;49.556;6.286;2023-04-03T06:51:26;5.75;4.00;2.25
51320;PMS5003;38732;49.556;6.286;2023-04-03T06:53:57;4.00;4.00;3.00
51320;PMS5003;38732;49.556;6.286;2023-04-03T06:56:26;3.40;3.20;1.60
51320;PMS5003;38732;49.556;6.286;2023-04-03T06:58:55;4.40;4.40;2.00
51320;PMS5003;38732;49.556;6.286;2023-04-03T07:01:25;5.00;5.00;4.00
51320;PMS5003;38732;49.556;6.286;2023-04-03T07:03:54;4.00;4.00;2.00
51320;PMS5003;38732;49.556;6.286;2023-04-03T07:06:23;4.20;4.20;2.00
51320;PMS5003;38732;49.556;6.286;2023-04-03T07:08:52;7.00;5.00;2.00
51320;PMS5003;38732;49.556;6.286;2023-04-03T07:11:21;1.40;1.40;0.80
51320;PMS5003;38732;49.556;6.286;2023-04-03T07:13:49;5.00;5.00;2.00
51320;PMS5003;38732;49.556;6.286;2023-04-03T07:16:18;5.00;2.00;1.00
51320;PMS5003;38732;49.556;6.286;2023-04-03T07:18:46;4.50;4.50;2.50
51320;PMS5003;38732;49.556;6.286;2023-04-03T07:21:14;4.25;4.00;2.00
51320;PMS5003;38732;49.556;6.286;2023-04-03T07:23:43;3.50;2.00;2.00
51320;PMS5003;38732;49.556;6.286;2023-04-03T07:26:11;5.75;5.75;4.00
51320;PMS5003;38732;49.556;6.286;2023-04-03T07:28:39;9.00;7.00;5.00
51320;PMS5003;38732;49.556;6.286;2023-04-03T07:31:08;4.25;4.25;2.00
51320;PMS5003;38732;49.556;6.286;2023-04-03T07:33:40;5.00;5.00;2.00
51320;PMS5003;38732;49.556;6.286;2023-04-03T07:36:09;9.80;6.60;3.60
51320;PMS5003;38732;49.556;6.286;2023-04-03T07:38:41;4.00;4.00;2.00
51320;PMS5003;38732;49.556;6.286;2023-04-03T07:41:14;5.25;4.50;4.00
51320;PMS5003;38732;49.556;6.286;2023-04-03T07:43:44;4.00;4.00;3.60
51320;PMS5003;38732;49.556;6.286;2023-04-03T07:46:13;4.50;1.00;1.00
51320;PMS5003;38732;49.556;6.286;2023-04-03T07:48:41;5.00;5.00;2.00
51320;PMS5003;38732;49.556;6.286;2023-04-03T07:51:09;9.50;7.50;4.00
51320;PMS5003;38732;49.556;6.286;2023-04-03T07:53:37;6.00;6.00;4.50
51320;PMS5003;38732;49.556;6.286;2023-04-03T07:56:05;5.25;5.25;5.00
51320;PMS5003;38732;49.556;6.286;2023-04-03T07:58:34;6.00;6.00;4.00
51320;PMS5003;38732;49.556;6.286;2023-04-03T08:01:02;6.25;4.25;4.00
51320;PMS5003;38732;49.556;6.286;2023-04-03T08:03:31;6.50;5.25;4.00
51320;PMS5003;38732;49.556;6.286;2023-04-03T08:06:03;6.00;5.00;3.50
51320;PMS5003;38732;49.556;6.286;2023-04-03T08:08:32;7.80;5.20;4.00
51320;PMS5003;38732;49.556;6.286;2023-04-03T08:11:01;5.00;5.00;3.00
51320;PMS5003;38732;49.556;6.286;2023-04-03T08:13:30;8.00;8.00;5.00
51320;PMS5003;38732;49.556;6.286;2023-04-03T08:16:06;5.50;5.00;3.00
51320;PMS5003;38732;49.556;6.286;2023-04-03T08:18:38;5.40;5.20;4.40
51320;PMS5003;38732;49.556;6.286;2023-04-03T08:21:10;8.00;5.25;4.00
51320;PMS5003;38732;49.556;6.286;2023-04-03T08:23:40;5.80;5.80;4.80
51320;PMS5003;38732;49.556;6.286;2023-04-03T08:26:10;5.80;5.80;4.00
51320;PMS5003;38732;49.556;6.286;2023-04-03T08:28:40;5.80;4.80;4.00
51320;PMS5003;38732;49.556;6.286;2023-04-03T08:31:09;5.00;5.00;2.00
51320;PMS5003;38732;49.556;6.286;2023-04-03T08:33:40;5.00;5.00;3.40
51320;PMS5003;38732;49.556;6.286;2023-04-03T08:36:15;8.50;5.75;4.00
51320;PMS5003;38732;49.556;6.286;2023-04-03T08:38:52;9.00;6.60;4.60
51320;PMS5003;38732;49.556;6.286;2023-04-03T08:41:40;5.40;5.40;4.60
51320;PMS5003;38732;49.556;6.286;2023-04-03T08:49:40;5.60;5.60;4.20
51320;PMS5003;38732;49.556;6.286;2023-04-03T08:52:11;6.00;6.00;3.00
51320;PMS5003;38732;49.556;6.286;2023-04-03T08:57:25;3.00;2.40;2.00
51320;PMS5003;38732;49.556;6.286;2023-04-03T08:59:58;5.00;5.00;3.00
51320;PMS5003;38732;49.556;6.286;2023-04-03T09:05:02;5.00;5.00;3.00
51320;PMS5003;38732;49.556;6.286;2023-04-03T09:07:43;7.80;6.40;3.00
51320;PMS5003;38732;49.556;6.286;2023-04-03T09:10:38;6.60;6.60;3.80
51320;PMS5003;38732;49.556;6.286;2023-04-03T09:16:25;2.60;2.60;2.60
51320;PMS5003;38732;49.556;6.286;2023-04-03T09:19:04;5.40;3.00;2.00
51320;PMS5003;38732;49.556;6.286;2023-04-03T09:21:55;6.00;5.00;2.00
51320;PMS5003;38732;49.556;6.286;2023-04-03T09:24:25;3.40;3.40;2.80
51320;PMS5003;38732;49.556;6.286;2023-04-03T09:27:04;5.00;5.00;4.20
51320;PMS5003;38732;49.556;6.286;2023-04-03T09:29:35;8.00;5.00;3.00
51320;PMS5003;38732;49.556;6.286;2023-04-03T09:32:27;4.20;3.00;2.60
51320;PMS5003;38732;49.556;6.286;2023-04-03T09:40:39;5.20;4.20;2.40
51320;PMS5003;38732;49.556;6.286;2023-04-03T09:43:21;5.80;5.40;3.00
51320;PMS5003;38732;49.556;6.286;2023-04-03T09:45:54;5.20;5.20;2.00
51320;PMS5003;38732;49.556;6.286;2023-04-03T09:48:24;4.40;3.80;2.00
51320;PMS5003;38732;49.556;6.286;2023-04-03T09:50:55;9.20;3.80;2.60
51320;PMS5003;38732;49.556;6.286;2023-04-03T09:53:28;6.80;6.80;3.00
51320;PMS5003;38732;49.556;6.286;2023-04-03T09:55:57;6.20;6.20;3.00
51320;PMS5003;38732;49.556;6.286;2023-04-03T09:58:28;6.00;6.00;5.00
51320;PMS5003;38732;49.556;6.286;2023-04-03T10:01:04;6.00;5.80;3.00
51320;PMS5003;38732;49.556;6.286;2023-04-03T10:03:33;6.50;6.00;4.50
51320;PMS5003;38732;49.556;6.286;2023-04-03T10:06:03;3.60;3.60;2.60
51320;PMS5003;38732;49.556;6.286;2023-04-03T10:08:33;3.75;3.00;2.50
51320;PMS5003;38732;49.556;6.286;2023-04-03T10:16:28;6.00;6.00;3.20
51320;PMS5003;38732;49.556;6.286;2023-04-03T10:19:40;5.20;5.20;3.00
51320;PMS5003;38732;49.556;6.286;2023-04-03T10:22:16;4.20;4.20;3.00
51320;PMS5003;38732;49.556;6.286;2023-04-03T10:27:51;6.80;4.00;3.00
51320;PMS5003;38732;49.556;6.286;2023-04-03T10:32:58;4.00;4.00;3.00
51320;PMS5003;38732;49.556;6.286;2023-04-03T10:38:44;5.20;3.40;3.00
51320;PMS5003;38732;49.556;6.286;2023-04-03T10:41:33;7.20;4.00;3.40
51320;PMS5003;38732;49.556;6.286;2023-04-03T10:44:23;7.00;6.00;3.20
51320;PMS5003;38732;49.556;6.286;2023-04-03T10:47:02;4.80;4.80;3.20
51320;PMS5003;38732;49.556;6.286;2023-04-03T10:53:27;5.80;5.20;3.60
51320;PMS5003;38732;49.556;6.286;2023-04-03T10:55:46;6.00;6.00;4.00
51320;PMS5003;38732;49.556;6.286;2023-04-03T10:58:39;8.00;5.80;3.60
51320;PMS5003;38732;49.556;6.286;2023-04-03T11:01:13;4.80;4.80;3.00
51320;PMS5003;38732;49.556;6.286;2023-04-03T11:03:53;3.40;3.40;2.00
51320;PMS5003;38732;49.556;6.286;2023-04-03T11:06:25;6.20;4.00;3.00
51320;PMS5003;38732;49.556;6.286;2023-04-03T11:09:00;4.00;4.00;3.00
51320;PMS5003;38732;49.556;6.286;2023-04-03T11:11:46;5.60;5.60;3.20
51320;PMS5003;38732;49.556;6.286;2023-04-03T11:14:22;7.00;7.00;5.00
51320;PMS5003;38732;49.556;6.286;2023-04-03T11:17:05;5.40;5.20;3.00
51320;PMS5003;38732;49.556;6.286;2023-04-03T11:22:44;4.00;4.00;3.00
51320;PMS5003;38732;49.556;6.286;2023-04-03T11:25:23;7.80;6.40;3.60
51320;PMS5003;38732;49.556;6.286;2023-04-03T11:27:55;7.80;7.20;5.00
51320;PMS5003;38732;49.556;6.286;2023-04-03T11:30:33;16.80;15.40;13.20
51320;PMS5003;38732;49.556;6.286;2023-04-03T11:35:52;3.20;2.60;2.00
51320;PMS5003;38732;49.556;6.286;2023-04-03T11:38:27;5.00;5.00;3.60
51320;PMS5003;38732;49.556;6.286;2023-04-03T11:41:00;3.20;3.00;1.20
51320;PMS5003;38732;49.556;6.286;2023-04-03T11:43:33;2.60;2.60;2.00
51320;PMS5003;38732;49.556;6.286;2023-04-03T11:46:08;4.40;4.40;2.00
51320;PMS5003;38732;49.556;6.286;2023-04-03T11:53:42;4.00;4.00;2.80
51320;PMS5003;38732;49.556;6.286;2023-04-03T12:04:14;3.80;2.80;2.00
51320;PMS5003;38732;49.556;6.286;2023-04-03T12:09:29;5.20;5.20;3.00
51320;PMS5003;38732;49.556;6.286;2023-04-03T12:12:20;4.00;3.60;3.20
51320;PMS5003;38732;49.556;6.286;2023-04-03T12:14:55;3.40;3.40;2.00
51320;PMS5003;38732;49.556;6.286;2023-04-03T12:17:39;3.80;3.00;3.00
51320;PMS5003;38732;49.556;6.286;2023-04-03T12:23:24;5.00;4.00;2.60
51320;PMS5003;38732;49.556;6.286;2023-04-03T12:28:41;3.80;3.20;2.00
51320;PMS5003;38732;49.556;6.286;2023-04-03T12:31:11;5.00;4.00;2.80
51320;PMS5003;38732;49.556;6.286;2023-04-03T12:33:46;3.75;3.00;2.00
51320;PMS5003;38732;49.556;6.286;2023-04-03T12:36:58;2.80;2.80;2.00
51320;PMS5003;38732;49.556;6.286;2023-04-03T12:39:50;3.40;3.40;2.20
51320;PMS5003;38732;49.556;6.286;2023-04-03T12:42:28;2.40;2.40;2.00
51320;PMS5003;38732;49.556;6.286;2023-04-03T12:45:22;3.40;3.40;2.00
51320;PMS5003;38732;49.556;6.286;2023-04-03T12:47:52;2.80;2.80;2.00
51320;PMS5003;38732;49.556;6.286;2023-04-03T12:50:23;3.20;3.20;2.20
51320;PMS5003;38732;49.556;6.286;2023-04-03T12:55:34;3.60;3.60;2.20
51320;PMS5003;38732;49.556;6.286;2023-04-03T12:58:23;3.25;3.25;2.00
51320;PMS5003;38732;49.556;6.286;2023-04-03T13:01:12;4.00;4.00;3.00
51320;PMS5003;38732;49.556;6.286;2023-04-03T13:03:50;5.00;4.00;2.80
51320;PMS5003;38732;49.556;6.286;2023-04-03T13:06:34;4.00;4.00;3.00
51320;PMS5003;38732;49.556;6.286;2023-04-03T13:09:21;2.20;2.20;1.80
51320;PMS5003;38732;49.556;6.286;2023-04-03T13:12:16;3.80;3.80;2.00
51320;PMS5003;38732;49.556;6.286;2023-04-03T13:14:57;3.00;3.00;2.00
51320;PMS5003;38732;49.556;6.286;2023-04-03T13:17:27;3.40;3.40;2.00
51320;PMS5003;38732;49.556;6.286;2023-04-03T13:19:56;3.00;3.00;2.00
51320;PMS5003;38732;49.556;6.286;2023-04-03T13:22:45;4.60;3.20;2.20
51320;PMS5003;38732;49.556;6.286;2023-04-03T13:25:17;3.80;3.80;2.40
51320;PMS5003;38732;49.556;6.286;2023-04-03T13:27:49;4.00;4.00;2.80
51320;PMS5003;38732;49.556;6.286;2023-04-03T13:30:23;3.20;2.80;2.00
51320;PMS5003;38732;49.556;6.286;2023-04-03T13:33:21;2.25;1.75;1.00
51320;PMS5003;38732;49.556;6.286;2023-04-03T13:35:56;2.40;2.40;1.00
51320;PMS5003;38732;49.556;6.286;2023-04-03T13:38:31;3.40;3.20;2.00
51320;PMS5003;38732;49.556;6.286;2023-04-03T13:41:03;3.00;3.00;2.00
51320;PMS5003;38732;49.556;6.286;2023-04-03T13:43:49;3.80;3.80;2.00
51320;PMS5003;38732;49.556;6.286;2023-04-03T13:48:46;4.00;4.00;2.00
51320;PMS5003;38732;49.556;6.286;2023-04-03T13:51:20;3.00;3.00;2.60
51320;PMS5003;38732;49.556;6.286;2023-04-03T13:53:58;2.00;2.00;2.00
51320;PMS5003;38732;49.556;6.286;2023-04-03T13:56:32;2.60;2.60;2.00
51320;PMS5003;38732;49.556;6.286;2023-04-03T13:59:05;3.60;3.60;3.00
51320;PMS5003;38732;49.556;6.286;2023-04-03T14:01:47;3.00;3.00;2.20
51320;PMS5003;38732;49.556;6.286;2023-04-03T14:04:31;3.00;3.00;2.00
51320;PMS5003;38732;49.556;6.286;2023-04-03T14:07:13;2.40;2.40;2.00
51320;PMS5003;38732;49.556;6.286;2023-04-03T14:09:42;4.40;3.00;2.00
51320;PMS5003;38732;49.556;6.286;2023-04-03T14:12:15;3.50;3.50;2.50
51320;PMS5003;38732;49.556;6.286;2023-04-03T14:14:47;3.20;3.00;2.00
51320;PMS5003;38732;49.556;6.286;2023-04-03T14:17:19;3.00;3.00;2.00
51320;PMS5003;38732;49.556;6.286;2023-04-03T14:19:50;2.40;2.40;2.00
51320;PMS5003;38732;49.556;6.286;2023-04-03T14:22:22;2.20;1.00;0.20
51320;PMS5003;38732;49.556;6.286;2023-04-03T14:24:55;4.20;3.00;1.00
51320;PMS5003;38732;49.556;6.286;2023-04-03T14:27:25;3.00;3.00;1.00
51320;PMS5003;38732;49.556;6.286;2023-04-03T14:29:58;2.00;2.00;1.00
51320;PMS5003;38732;49.556;6.286;2023-04-03T14:32:27;3.00;3.00;1.00
51320;PMS5003;38732;49.556;6.286;2023-04-03T14:34:56;4.25;2.00;1.00
51320;PMS5003;38732;49.556;6.286;2023-04-03T14:37:26;3.00;3.00;2.00
51320;PMS5003;38732;49.556;6.286;2023-04-03T14:39:57;2.00;2.00;2.00
51320;PMS5003;38732;49.556;6.286;2023-04-03T14:42:31;3.00;3.00;1.20
51320;PMS5003;38732;49.556;6.286;2023-04-03T14:45:03;3.00;3.00;2.00
51320;PMS5003;38732;49.556;6.286;2023-04-03T14:47:34;1.20;1.20;1.00
51320;PMS5003;38732;49.556;6.286;2023-04-03T14:50:11;1.60;1.60;0.40
51320;PMS5003;38732;49.556;6.286;2023-04-03T14:52:43;2.00;2.00;1.00
51320;PMS5003;38732;49.556;6.286;2023-04-03T14:55:14;3.60;3.60;2.00
51320;PMS5003;38732;49.556;6.286;2023-04-03T14:57:44;2.80;2.80;1.60
51320;PMS5003;38732;49.556;6.286;2023-04-03T15:00:13;2.00;2.00;1.00
51320;PMS5003;38732;49.556;6.286;2023-04-03T15:02:44;2.20;2.20;1.00
51320;PMS5003;38732;49.556;6.286;2023-04-03T15:05:13;0.00;0.00;0.00
51320;PMS5003;38732;49.556;6.286;2023-04-03T15:08:03;1.20;1.20;1.00
51320;PMS5003;38732;49.556;6.286;2023-04-03T15:10:31;2.00;2.00;2.00
51320;PMS5003;38732;49.556;6.286;2023-04-03T15:12:59;2.75;1.50;1.00
51320;PMS5003;38732;49.556;6.286;2023-04-03T15:15:28;2.00;2.00;1.00
51320;PMS5003;38732;49.556;6.286;2023-04-03T15:17:57;4.00;2.00;1.80
51320;PMS5003;38732;49.556;6.286;2023-04-03T15:20:26;3.00;2.00;1.00
51320;PMS5003;38732;49.556;6.286;2023-04-03T15:22:56;1.60;1.60;1.00
51320;PMS5003;38732;49.556;6.286;2023-04-03T15:25:25;2.75;2.00;1.00
51320;PMS5003;38732;49.556;6.286;2023-04-03T15:27:54;2.00;2.00;1.00
51320;PMS5003;38732;49.556;6.286;2023-04-03T15:30:23;3.80;2.00;1.00
51320;PMS5003;38732;49.556;6.286;2023-04-03T15:32:52;3.00;2.75;1.50
51320;PMS5003;38732;49.556;6.286;2023-04-03T15:35:20;3.50;3.00;2.25
51320;PMS5003;38732;49.556;6.286;2023-04-03T15:37:48;6.75;6.50;2.00
51320;PMS5003;38732;49.556;6.286;2023-04-03T15:40:16;3.50;3.00;2.00
51320;PMS5003;38732;49.556;6.286;2023-04-03T15:42:45;2.50;2.50;2.00
51320;PMS5003;38732;49.556;6.286;2023-04-03T15:45:13;2.25;2.25;1.50
51320;PMS5003;38732;49.556;6.286;2023-04-03T15:47:41;3.50;3.00;2.00
51320;PMS5003;38732;49.556;6.286;2023-04-03T15:50:10;3.00;3.00;2.00
51320;PMS5003;38732;49.556;6.286;2023-04-03T15:52:38;3.00;2.00;1.00
51320;PMS5003;38732;49.556;6.286;2023-04-03T15:55:06;3.50;3.50;2.00
51320;PMS5003;38732;49.556;6.286;2023-04-03T15:57:35;3.00;2.00;2.00
51320;PMS5003;38732;49.556;6.286;2023-04-03T16:00:03;3.00;3.00;2.00
51320;PMS5003;38732;49.556;6.286;2023-04-03T16:02:32;3.40;3.40;2.40
51320;PMS5003;38732;49.556;6.286;2023-04-03T16:05:01;2.00;2.00;1.00
51320;PMS5003;38732;49.556;6.286;2023-04-03T16:07:30;4.00;4.00;3.00